• Join FlightAware (Why Join?)
  • Login
  • US Flag 
02:51AM EST


 

Airport Tracker/Info


-or-


 

Live Flight TrackerFlight Track Log ✈ CPZ5714 ✈ 25-Jun-2013 ✈ KMSP - KALB

Flight Track Log - Related Links

Times and Time Zones

All times are in EDT time to prevent confusion due to time zone crossing. See the CPZ5714 flight status page for this flight to view local times or setup timezone preferences in your user account.

Time Position Orientation Groundspeed Altitude Reporting Facility
EDT Latitude Longitude Course Direction KTS MPH feet Rate Location/Type
08:36PM 44.8667 -93.1500 70° East 165 190 2,300  Level Minneapolis TRACON
08:37PM 44.8642 -93.1069 95° East 199 229 3,000 1,980 Climbing Minneapolis Center
08:38PM 44.9275 -93.0386 37° Northeast 271 312 5,800 2,760 Climbing Minneapolis Center
08:39PM 45.0463 -92.5965 68° East  Level FlightAware Approximate
08:39PM 44.9975 -92.9917 25° Northeast 282 325 8,800  Level Minneapolis Center
08:40PM 45.0899 -92.4404 70° East  Level FlightAware Approximate
08:40PM 45.0578 -92.9108 43° Northeast 298 343 10,800  Level Minneapolis Center
08:41PM 45.1257 -92.2810 70° East  Level FlightAware Approximate
08:41PM 45.1283 -92.8167 43° Northeast 345 397 12,900  Level Minneapolis Center
08:42PM 45.1644 -92.1256 70° East  Level FlightAware Approximate
08:42PM 45.2008 -92.7192 43° Northeast 358 412 15,200  Level Minneapolis Center
08:43PM 45.2592 -92.6022 55° Northeast 370 426 17,200 2,160 Climbing Minneapolis Center
08:44PM 45.2836 -92.4228 79° East 385 443 19,700 2,040 Climbing Minneapolis Center
08:45PM 45.3067 -92.2642 78° East 405 466 21,500 1,800 Climbing Minneapolis Center
08:46PM 45.3281 -92.1006 79° East 419 482 23,500 1,740 Climbing Minneapolis Center
08:47PM 45.3369 -91.9333 86° East 426 490 25,100 1,380 Climbing Minneapolis Center
08:48PM 45.3258 -91.7611 95° East 437 503 26,400 1,320 Climbing Minneapolis Center
08:49PM 45.3139 -91.5861 95° East 445 512 27,900 1,440 Climbing Minneapolis Center
08:51PM 45.3008 -91.3783 95° East 443 510 29,400 1,140 Climbing Minneapolis Center
08:52PM 45.2881 -91.1925 96° East 446 513 30,300 900 Climbing Minneapolis Center
08:53PM 45.2753 -91.0161 96° East 448 516 31,300 780 Climbing Minneapolis Center
08:54PM 45.2650 -90.8386 95° East 451 519 32,000 480 Climbing Minneapolis Center
08:55PM 45.2506 -90.6575 96° East 459 528 32,400 480 Climbing Minneapolis Center
08:56PM 45.2383 -90.4744 95° East 466 536 33,000 480 Climbing Minneapolis Center
08:57PM 45.2253 -90.2883 96° East 475 547 33,500 660 Climbing Minneapolis Center
08:58PM 45.2081 -90.0617 96° East 482 555 34,400 720 Climbing Minneapolis Center
08:59PM 45.1931 -89.8736 96° East 483 556 35,000 240 Climbing Minneapolis Center
09:00PM 45.1792 -89.6839 96° East 486 559 35,000  Level Minneapolis Center
09:01PM 45.1636 -89.4944 97° East 487 560 35,000  Level Minneapolis Center
09:02PM 45.1483 -89.3017 96° East 494 568 35,000  Level Minneapolis Center
09:03PM 45.1292 -89.0708 97° East 494 568 35,000  Level Minneapolis Center
09:04PM 45.1131 -88.8814 97° East 488 562 35,000  Level Minneapolis Center
09:05PM 45.0958 -88.6917 97° East 488 562 35,000  Level Minneapolis Center
09:06PM 45.0800 -88.5025 97° East 492 566 35,000  Level Minneapolis Center
09:07PM 45.0628 -88.3097 97° East 494 568 35,000  Level Minneapolis Center
09:08PM 45.0442 -88.1181 98° East 494 568 35,000 180 Level Minneapolis Center
09:09PM 45.0222 -87.8850 98° East 497 572 35,400 600 Climbing Minneapolis Center
09:10PM 45.0039 -87.6939 98° East 494 568 36,300 720 Climbing Minneapolis Center
09:11PM 44.9861 -87.5064 98° East 485 558 37,000 300 Climbing Minneapolis Center
09:12PM 44.9664 -87.3172 98° East 487 560 37,000  Level Minneapolis Center
09:13PM 44.9475 -87.1236 98° East 497 572 37,000  Level Minneapolis Center
09:14PM 44.9275 -86.9308 98° East 498 573 37,000  Level Minneapolis Center
09:15PM 44.9044 -86.7142 98° East 495 570 37,000  Level Minneapolis Center
09:16PM 44.8844 -86.5236 98° East 494 568 37,000  Level Minneapolis Center
09:17PM 44.8642 -86.3322 98° East 493 567 37,000  Level Minneapolis Center
09:18PM 44.8428 -86.1414 99° East 494 568 37,000  Level Minneapolis Center
09:19PM 44.8175 -85.9147 99° East 491 565 37,000  Level Minneapolis Center
09:21PM 44.7964 -85.7278 99° East 488 562 37,000  Level Minneapolis Center
09:22PM 44.7767 -85.5508 99° East 483 556 37,000  Level Minneapolis Center
09:23PM 44.7547 -85.3667 99° East 480 552 37,000  Level Minneapolis Center
09:24PM 44.7292 -85.1469 99° East 476 548 37,000  Level Minneapolis Center
09:25PM 44.7064 -84.9636 100° East 477 549 37,000  Level Minneapolis Center
09:26PM 44.6839 -84.7800 100° East 477 549 37,000  Level Minneapolis Center
09:27PM 44.6614 -84.5967 100° East 478 550 37,000  Level Minneapolis Center
09:28PM 44.6386 -84.4119 100° East 480 552 37,000  Level Minneapolis Center
09:29PM 44.6156 -84.2264 100° East 483 556 37,000  Level Minneapolis Center
09:30PM 44.5869 -84.0058 100° East 481 554 37,000  Level Minneapolis Center
09:31PM 44.5628 -83.8222 100° East 480 552 37,000  Level Minneapolis Center
09:32PM 44.5372 -83.6383 101° East 482 555 37,000  Level Minneapolis Center
09:33PM 44.5136 -83.4556 100° East 480 552 37,000  Level Minneapolis Center
09:34PM 44.4881 -83.2725 101° East 479 551 37,000  Level Minneapolis Center
09:35PM 44.4644 -83.0881 100° East 482 555 37,000  Level Minneapolis Center
09:36PM 44.4319 -82.8675 102° East 483 556 37,000  Level Minneapolis Center
09:37PM 44.4064 -82.6847 101° East 482 555 37,000  Level Minneapolis Center
09:38PM 44.3808 -82.4992 101° East 485 558 37,000  Level Minneapolis Center
09:39PM 44.3500 -82.3833 110° East 480 552 37,000  Level Toronto Center
09:40PM 44.3167 -82.2000 104° East 480 552 37,000 -420 Level Toronto Center
09:41PM 44.2833 -82.0333 106° East 470 541 36,200 -1,020 Descending Toronto Center
09:42PM 44.2667 -81.8500 97° East 480 552 35,000 -600 Descending Toronto Center
09:43PM 44.2500 -81.6500 97° East 480 552 35,000  Level Toronto Center
09:44PM 44.2167 -81.4667 104° East 480 552 35,000  Level Toronto Center
09:45PM 44.1833 -81.3000 106° East 480 552 35,000  Level Toronto Center
09:46PM 44.1500 -81.1167 104° East 480 552 35,000  Level Toronto Center
09:47PM 44.1167 -80.9333 104° East 470 541 35,000  Level Toronto Center
09:48PM 44.1167 -80.7667 90° East 470 541 35,000  Level Toronto Center
09:49PM 44.0833 -80.5833 104° East 470 541 35,000  Level Toronto Center
09:50PM 44.0500 -80.4000 104° East 480 552 35,000  Level Toronto Center
09:51PM 44.0167 -80.2167 104° East 480 552 35,000  Level Toronto Center
09:52PM 43.9833 -80.0500 105° East 480 552 35,000  Level Toronto Center
09:53PM 43.9500 -79.8667 104° East 480 552 35,000  Level Toronto Center
09:54PM 43.9333 -79.6833 97° East 480 552 35,000  Level Toronto Center
09:55PM 43.9000 -79.5167 105° East 480 552 35,000  Level Toronto Center
09:56PM 43.8667 -79.3333 104° East 480 552 35,000  Level Toronto Center
09:57PM 43.8333 -79.1500 104° East 480 552 35,000  Level Toronto Center
09:58PM 43.8000 -78.9667 104° East 480 552 35,000  Level Toronto Center
09:59PM 43.7667 -78.7833 104° East 480 552 35,000  Level Toronto Center
10:00PM 43.7333 -78.6167 105° East 480 552 35,000  Level Toronto Center
10:01PM 43.7000 -78.4333 104° East 480 552 35,000  Level Toronto Center
10:02PM 43.6667 -78.2500 104° East 480 552 35,000  Level Toronto Center
10:03PM 43.6333 -78.0667 104° East 480 552 35,000  Level Toronto Center
10:04PM 43.6086 -77.8997 102° East 478 550 35,000  Level Cleveland Center
10:05PM 43.5731 -77.7208 105° East 478 550 35,000 -480 Level Cleveland Center
10:06PM 43.5414 -77.5389 103° East 478 550 34,100 -1,080 Descending Cleveland Center
10:08PM 43.4500 -77.1500 108° East 490 564 31,900 -1,140 Descending Toronto Center
10:09PM 43.4333 -77.0000 99° East 500 575 30,900 -1,140 Descending Toronto Center
10:10PM 43.4000 -76.7833 102° East 490 564 29,700 -960 Descending Toronto Center
10:11PM 43.3500 -76.6333 115° Southeast 490 564 29,000 -360 Descending Toronto Center
10:12PM 43.3167 -76.4500 104° East 490 564 29,000 -480 Level Toronto Center
10:13PM 43.2833 -76.2667 104° East 490 564 28,100 -1,140 Descending Toronto Center
10:14PM 43.2333 -76.0833 110° East 490 564 26,800 -1,200 Descending Toronto Center
10:15PM 43.2000 -75.9000 104° East 480 552 25,700 -1,200 Descending Toronto Center
10:16PM 43.1667 -75.7167 104° East 480 552 24,400 -1,320 Descending Toronto Center
10:17PM 43.1333 -75.5667 107° East 470 541 23,100 -1,560 Descending Toronto Center
10:18PM 43.1000 -75.3833 104° East 460 529 21,300 -1,800 Descending Toronto Center
10:19PM 43.0667 -75.2333 107° East 460 529 19,600 -1,740 Descending Toronto Center
10:20PM 43.0167 -75.0667 112° Southeast 440 506 17,900 -1,800 Descending Toronto Center
10:20PM 43.0242 -74.9878 83° East 434 499 16,600 -1,680 Descending Boston Center
10:21PM 43.0139 -74.8936 98° East 435 501 15,600 -1,680 Descending Boston Center
10:22PM 43.0028 -74.7200 95° East 423 487 13,800 -1,740 Descending Boston Center
10:23PM 42.9908 -74.5889 97° East 407 468 12,200 -1,560 Descending Boston Center
10:24PM 42.9789 -74.4381 96° East 376 433 10,700 -1,320 Descending Boston Center
10:25PM 42.9725 -74.3328 95° East 326 375 9,600 -1,500 Descending Boston Center
10:26PM 42.9597 -74.2047 98° East 302 348 7,800 -1,800 Descending Boston Center
10:27PM 42.9531 -74.1053 95° East 296 341 6,100 -1,800 Descending Boston Center
10:28PM 42.9403 -73.9800 98° East 296 341 4,200 -1,560 Descending Boston Center
10:29PM 42.9331 -73.8806 96° East 296 341 3,000 -600 Descending Boston Center
10:30PM 42.8903 -73.8117 130° Southeast 248 285 3,000  Level Boston Center